| time (UTC) | temp F | wind direction | speed MPH | gust MPH | rain 1hr in | rain 24hr in | rain mn in | humidity % | barometer mb |
| 20260510230619 | 60 | 289 | 2.0 | 7.0 | 0.00 | 0.00 | 0.00 | 31 | 1019.6 |
| 20260510230116 | 60 | 306 | 2.0 | 3.0 | 0.00 | 0.00 | 0.00 | 31 | 1019.6 |
| 20260510225612 | 60 | 258 | 1.0 | 1.0 | 0.00 | 0.00 | 0.00 | 32 | 1019.6 |
| 20260510225108 | 60 | 250 | 1.0 | 2.0 | 0.00 | 0.00 | 0.00 | 33 | 1019.6 |
| 20260510224604 | 60 | 276 | 3.0 | 6.0 | 0.00 | 0.00 | 0.00 | 31 | 1019.5 |
| 20260510224101 | 60 | 267 | 0.0 | 3.0 | 0.00 | 0.00 | 0.00 | 32 | 1019.7 |
| 20260510223559 | 61 | 264 | 3.0 | 5.0 | 0.00 | 0.00 | 0.00 | 32 | 1019.6 |
| 20260510223056 | 61 | 252 | 3.0 | 6.0 | 0.00 | 0.00 | 0.00 | 31 | 1019.3 |
| 20260510222552 | 60 | 300 | 0.0 | 1.0 | 0.00 | 0.00 | 0.00 | 32 | 1019.4 |
| 20260510222049 | 60 | 244 | 0.0 | 5.0 | 0.00 | 0.00 | 0.00 | 32 | 1019.5 |
| 20260510221544 | 61 | 260 | 1.0 | 5.0 | 0.00 | 0.00 | 0.00 | 32 | 1019.6 |
| 20260510221041 | 61 | 309 | 3.0 | 3.0 | 0.00 | 0.00 | 0.00 | 32 | 1019.4 |
| 20260510220538 | 61 | 256 | 2.0 | 6.0 | 0.00 | 0.00 | 0.00 | 31 | 1019.6 |
| 20260510220034 | 62 | 287 | 2.0 | 5.0 | 0.00 | 0.00 | 0.00 | 30 | 1019.4 |
| 20260510215531 | 62 | 265 | 2.0 | 3.0 | 0.00 | 0.00 | 0.00 | 31 | 1019.5 |
| 20260510215029 | 61 | 276 | 2.0 | 2.0 | 0.00 | 0.00 | 0.00 | 33 | 1019.5 |
| 20260510214526 | 62 | 298 | 1.0 | 7.0 | 0.00 | 0.00 | 0.00 | 31 | 1019.2 |
| 20260510214022 | 61 | 305 | 3.0 | 5.0 | 0.00 | 0.00 | 0.00 | 31 | 1018.9 |
| 20260510213520 | 61 | 319 | 2.0 | 3.0 | 0.00 | 0.00 | 0.00 | 32 | 1019.1 |
| 20260510213015 | 62 | 292 | 3.0 | 5.0 | 0.00 | 0.00 | 0.00 | 30 | 1018.9 |
| 20260510212512 | 63 | 251 | 1.0 | 2.0 | 0.00 | 0.00 | 0.00 | 28 | 1018.8 |
| 20260510212009 | 61 | 329 | 4.0 | 6.0 | 0.00 | 0.00 | 0.00 | 29 | 1019.1 |
| 20260510211506 | 60 | 285 | 1.0 | 6.0 | 0.00 | 0.00 | 0.00 | 33 | 1018.9 |
| 20260510211006 | 61 | 310 | 4.0 | 6.0 | 0.00 | 0.00 | 0.00 | 30 | 1019.0 |
| 20260510210503 | 62 | 313 | 4.0 | 6.0 | 0.00 | 0.00 | 0.00 | 30 | 1018.9 |
| 20260510210003 | 63 | 330 | 3.0 | 3.0 | 0.00 | 0.00 | 0.00 | 29 | 1018.8 |
| 20260510205457 | 62 | 300 | 1.0 | 3.0 | 0.00 | 0.00 | 0.00 | 29 | 1018.8 |
| 20260510204953 | 62 | 198 | 0.0 | 5.0 | 0.00 | 0.00 | 0.00 | 27 | 1018.7 |
| 20260510204449 | 61 | 257 | 1.0 | 5.0 | 0.00 | 0.00 | 0.00 | 29 | 1018.8 |
| 20260510203945 | 65 | 271 | 4.0 | 7.0 | 0.00 | 0.00 | 0.00 | 28 | 1018.9 |
| 20260510203443 | 65 | 255 | 0.0 | 3.0 | 0.00 | 0.00 | 0.00 | 27 | 1018.7 |
| 20260510202938 | 63 | 273 | 2.0 | 7.0 | 0.00 | 0.00 | 0.00 | 29 | 1018.7 |
| 20260510202434 | 62 | 221 | 1.0 | 2.0 | 0.00 | 0.00 | 0.00 | 28 | 1018.6 |
| 20260510201931 | 63 | 230 | 3.0 | 7.0 | 0.00 | 0.00 | 0.00 | 29 | 1019.1 |
| 20260510201428 | 63 | 289 | 5.0 | 8.0 | 0.00 | 0.00 | 0.00 | 27 | 1018.8 |
| 20260510200924 | 65 | 243 | 1.0 | 3.0 | 0.00 | 0.00 | 0.00 | 26 | 1018.8 |
| 20260510200419 | 64 | 206 | 2.0 | 5.0 | 0.00 | 0.00 | 0.00 | 30 | 1018.9 |
| 20260510195912 | 64 | 305 | 5.0 | 6.0 | 0.00 | 0.00 | 0.00 | 27 | 1019.0 |
| 20260510195409 | 62 | 270 | 1.0 | 2.0 | 0.00 | 0.00 | 0.00 | 28 | 1018.9 |
| 20260510194904 | 61 | 268 | 1.0 | 2.0 | 0.00 | 0.00 | 0.00 | 31 | 1018.9 |
| 20260510194401 | 62 | 276 | 4.0 | 5.0 | 0.00 | 0.00 | 0.00 | 29 | 1019.1 |
| 20260510193857 | 61 | 309 | 3.0 | 7.0 | 0.00 | 0.00 | 0.00 | 30 | 1019.1 |
| 20260510193352 | 60 | 43 | 2.0 | 2.0 | 0.00 | 0.00 | 0.00 | 29 | 1019.1 |
| 20260510192848 | 61 | 45 | 3.0 | 5.0 | 0.00 | 0.00 | 0.00 | 30 | 1019.3 |
| 20260510192343 | 60 | 129 | 2.0 | 7.0 | 0.00 | 0.00 | 0.00 | 30 | 1019.2 |
| 20260510191839 | 62 | 257 | 2.0 | 5.0 | 0.00 | 0.00 | 0.00 | 32 | 1019.3 |
| 20260510191335 | 63 | 290 | 1.0 | 5.0 | 0.00 | 0.00 | 0.00 | 32 | 1019.4 |
| 20260510190833 | 63 | 230 | 1.0 | 2.0 | 0.00 | 0.00 | 0.00 | 29 | 1019.1 |
| 20260510190331 | 63 | 258 | 2.0 | 6.0 | 0.00 | 0.00 | 0.00 | 30 | 1019.2 |
| 20260510185826 | 62 | 348 | 6.0 | 7.0 | 0.00 | 0.00 | 0.00 | 28 | 1019.2 |
| 20260510185324 | 62 | 265 | 1.0 | 2.0 | 0.00 | 0.00 | 0.00 | 29 | 1019.3 |
| 20260510184816 | 63 | 292 | 5.0 | 6.0 | 0.00 | 0.00 | 0.00 | 29 | 1019.5 |
| 20260510184312 | 62 | 276 | 3.0 | 6.0 | 0.00 | 0.00 | 0.00 | 30 | 1019.1 |
| 20260510183807 | 63 | 250 | 2.0 | 3.0 | 0.00 | 0.00 | 0.00 | 27 | 1019.0 |
| 20260510183302 | 63 | 324 | 2.0 | 3.0 | 0.00 | 0.00 | 0.00 | 28 | 1019.1 |
| 20260510182759 | 63 | 292 | 3.0 | 6.0 | 0.00 | 0.00 | 0.00 | 29 | 1019.1 |
| 20260510182255 | 63 | 275 | 2.0 | 6.0 | 0.00 | 0.00 | 0.00 | 34 | 1019.0 |
| 20260510181751 | 64 | 274 | 3.0 | 5.0 | 0.00 | 0.00 | 0.00 | 30 | 1018.9 |
| 20260510181248 | 62 | 298 | 4.0 | 9.0 | 0.00 | 0.00 | 0.00 | 28 | 1019.0 |
| 20260510180745 | 63 | 343 | 5.0 | 9.0 | 0.00 | 0.00 | 0.00 | 26 | 1018.7 |
| 20260510180242 | 62 | 313 | 2.0 | 5.0 | 0.00 | 0.00 | 0.00 | 29 | 1018.7 |
| 20260510175739 | 62 | 65 | 3.0 | 6.0 | 0.00 | 0.00 | 0.00 | 26 | 1018.8 |
| 20260510175234 | 62 | 303 | 2.0 | 5.0 | 0.00 | 0.00 | 0.00 | 28 | 1018.8 |
| 20260510174732 | 62 | 225 | 2.0 | 6.0 | 0.00 | 0.00 | 0.00 | 30 | 1018.7 |
| 20260510174228 | 61 | 337 | 7.0 | 7.0 | 0.00 | 0.00 | 0.00 | 28 | 1018.7 |
| 20260510173719 | 61 | 309 | 2.0 | 9.0 | 0.00 | 0.00 | 0.00 | 28 | 1019.0 |
| 20260510173214 | 61 | 319 | 3.0 | 6.0 | 0.00 | 0.00 | 0.00 | 28 | 1019.0 |
| 20260510172704 | 62 | 343 | 6.0 | 9.0 | 0.00 | 0.00 | 0.00 | 27 | 1018.8 |
| 20260510172201 | 61 | 263 | 3.0 | 9.0 | 0.00 | 0.00 | 0.00 | 26 | 1018.7 |
| 20260510171657 | 60 | 298 | 1.0 | 7.0 | 0.00 | 0.00 | 0.00 | 27 | 1019.0 |
| 20260510171154 | 61 | 344 | 1.0 | 5.0 | 0.00 | 0.00 | 0.00 | 27 | 1019.1 |
| 20260510170645 | 61 | 231 | 2.0 | 5.0 | 0.00 | 0.00 | 0.00 | 32 | 1018.9 |
| 20260510170142 | 61 | 289 | 3.0 | 3.0 | 0.00 | 0.00 | 0.00 | 27 | 1019.0 |
| 20260510165638 | 60 | 282 | 3.0 | 8.0 | 0.00 | 0.00 | 0.00 | 30 | 1019.0 |
| 20260510165134 | 61 | 317 | 2.0 | 7.0 | 0.00 | 0.00 | 0.00 | 27 | 1019.1 |
| 20260510164631 | 62 | 290 | 2.0 | 9.0 | 0.00 | 0.00 | 0.00 | 26 | 1019.0 |
| 20260510164127 | 60 | 308 | 3.0 | 5.0 | 0.00 | 0.00 | 0.00 | 31 | 1019.3 |
| 20260510163622 | 60 | 299 | 3.0 | 3.0 | 0.00 | 0.00 | 0.00 | 29 | 1019.1 |
| 20260510163119 | 62 | 273 | 2.0 | 3.0 | 0.00 | 0.00 | 0.00 | 29 | 1019.1 |
| 20260510162614 | 60 | 323 | 3.0 | 8.0 | 0.00 | 0.00 | 0.00 | 28 | 1019.1 |
| 20260510162112 | 62 | 313 | 4.0 | 6.0 | 0.00 | 0.00 | 0.00 | 30 | 1019.2 |
| 20260510161607 | 61 | 252 | 3.0 | 7.0 | 0.00 | 0.00 | 0.00 | 31 | 1019.3 |
| 20260510161104 | 61 | 294 | 3.0 | 9.0 | 0.00 | 0.00 | 0.00 | 31 | |
| 20260510160601 | 61 | 230 | 3.0 | 5.0 | 0.00 | 0.00 | 0.00 | 31 | |
| 20260510160101 | 60 | 305 | 5.0 | 6.0 | 0.00 | 0.00 | 0.00 | 32 | |
| 20260510155558 | 60 | 272 | 1.0 | 5.0 | 0.00 | 0.00 | 0.00 | 32 | |
| 20260510155054 | 60 | 292 | 2.0 | 5.0 | 0.00 | 0.00 | 0.00 | 34 | |
| 20260510154549 | 60 | 245 | 3.0 | 5.0 | 0.00 | 0.00 | 0.00 | 32 | |
| 20260510154045 | 60 | 326 | 2.0 | 7.0 | 0.00 | 0.00 | 0.00 | 33 | |
| 20260510153540 | 58 | 342 | 4.0 | 6.0 | 0.00 | 0.00 | 0.00 | 36 | |
| 20260510153037 | 58 | 342 | 3.0 | 7.0 | 0.00 | 0.00 | 0.00 | 33 | |
| 20260510152534 | 60 | 314 | 3.0 | 7.0 | 0.00 | 0.00 | 0.00 | 34 | |
| 20260510152030 | 59 | 254 | 0.0 | 3.0 | 0.00 | 0.00 | 0.00 | 34 | |
| 20260510151526 | 59 | 249 | 1.0 | 3.0 | 0.00 | 0.00 | 0.00 | 35 | |
| 20260510151024 | 58 | 307 | 4.0 | 5.0 | 0.00 | 0.00 | 0.00 | 33 | |
| 20260510150519 | 59 | 237 | 1.0 | 3.0 | 0.00 | 0.00 | 0.00 | 35 | |
| 20260510150015 | 58 | 267 | 1.0 | 5.0 | 0.00 | 0.00 | 0.00 | 36 | |
| 20260510145512 | 58 | 267 | 2.0 | 5.0 | 0.00 | 0.00 | 0.00 | 35 | |
| 20260510145009 | 57 | 304 | 3.0 | 3.0 | 0.00 | 0.00 | 0.00 | 39 | |
| 20260510144506 | 58 | 267 | 2.0 | 3.0 | 0.00 | 0.00 | 0.00 | 36 | |
| 20260510144002 | 57 | 264 | 2.0 | 2.0 | 0.00 | 0.00 | 0.00 | 34 | |
| 20260510143457 | 57 | 299 | 2.0 | 5.0 | 0.00 | 0.00 | 0.00 | 38 | |
| 20260510142954 | 57 | 293 | 2.0 | 6.0 | 0.00 | 0.00 | 0.00 | 36 | |
| 20260510142450 | 56 | 7 | 3.0 | 5.0 | 0.00 | 0.00 | 0.00 | 37 | |
| 20260510141942 | 57 | 121 | 3.0 | 6.0 | 0.00 | 0.00 | 0.00 | 37 | |
| 20260510141438 | 57 | 248 | 1.0 | 5.0 | 0.00 | 0.00 | 0.00 | 40 | |
| 20260510140935 | 57 | 291 | 2.0 | 3.0 | 0.00 | 0.00 | 0.00 | 39 | |
| 20260510140426 | 56 | 273 | 1.0 | 3.0 | 0.00 | 0.00 | 0.00 | 39 | |
| 20260510135924 | 56 | 235 | 1.0 | 2.0 | 0.00 | 0.00 | 0.00 | 41 | |
| 20260510135415 | 55 | 279 | 2.0 | 2.0 | 0.00 | 0.00 | 0.00 | 42 | |
| 20260510134913 | 56 | 46 | 1.0 | 2.0 | 0.00 | 0.00 | 0.00 | 40 | |
| 20260510134409 | 55 | 231 | 0.0 | 2.0 | 0.00 | 0.00 | 0.00 | 40 | |
| 20260510133905 | 56 | 223 | 3.0 | 3.0 | 0.00 | 0.00 | 0.00 | 41 | |
| 20260510133402 | 55 | 63 | 0.0 | 2.0 | 0.00 | 0.00 | 0.00 | 41 | |
| 20260510132857 | 55 | 276 | 1.0 | 1.0 | 0.00 | 0.00 | 0.00 | 42 | |
| 20260510132356 | 55 | 296 | 0.0 | 1.0 | 0.00 | 0.00 | 0.00 | 41 | |
| 20260510131852 | 53 | 226 | 0.0 | 1.0 | 0.00 | 0.00 | 0.00 | 43 | |
| 20260510131350 | 54 | 291 | 1.0 | 2.0 | 0.00 | 0.00 | 0.00 | 44 | |
| 20260510130846 | 54 | 234 | 1.0 | 2.0 | 0.00 | 0.00 | 0.00 | 44 | |
| 20260510130343 | 53 | 273 | 1.0 | 3.0 | 0.00 | 0.00 | 0.00 | 44 | |
| 20260510125840 | 53 | 317 | 1.0 | 3.0 | 0.00 | 0.00 | 0.00 | 45 | |
| 20260510125336 | 54 | 291 | 1.0 | 1.0 | 0.00 | 0.00 | 0.00 | 44 | |
| 20260510124834 | 53 | 316 | 0.0 | 1.0 | 0.00 | 0.00 | 0.00 | 46 | |
| 20260510124330 | 53 | 259 | 1.0 | 1.0 | 0.00 | 0.00 | 0.00 | 46 | |
| 20260510123826 | 52 | 243 | 0.0 | 1.0 | 0.00 | 0.00 | 0.00 | 48 | |
| 20260510123321 | 52 | 289 | 0.0 | 1.0 | 0.00 | 0.00 | 0.00 | 49 | |
| 20260510122818 | 52 | 31 | 0.0 | 2.0 | 0.00 | 0.00 | 0.00 | 49 | |
| 20260510122314 | 51 | 240 | 0.0 | 0.0 | 0.00 | 0.00 | 0.00 | 53 | |
| 20260510121810 | 50 | 289 | 1.0 | 1.0 | 0.00 | 0.00 | 0.00 | 53 | |
| 20260510121308 | 50 | 286 | 2.0 | 2.0 | 0.00 | 0.00 | 0.00 | 54 | |
| 20260510120805 | 50 | 310 | 2.0 | 3.0 | 0.00 | 0.00 | 0.00 | 54 | |
| 20260510120302 | 50 | 300 | 0.0 | 1.0 | 0.00 | 0.00 | 0.00 | 56 | |
| 20260510115757 | 49 | 287 | 1.0 | 2.0 | 0.00 | 0.00 | 0.00 | 58 | |
| 20260510115255 | 48 | 322 | 1.0 | 3.0 | 0.00 | 0.00 | 0.00 | 58 | |
| 20260510114750 | 47 | 302 | 1.0 | 2.0 | 0.00 | 0.00 | 0.00 | 61 | |
| 20260510114247 | 47 | 289 | 2.0 | 2.0 | 0.00 | 0.00 | 0.00 | 62 | |
| 20260510113742 | 46 | 268 | 0.0 | 1.0 | 0.00 | 0.00 | 0.00 | 63 | |
| 20260510113240 | 46 | 252 | 1.0 | 3.0 | 0.00 | 0.00 | 0.00 | 65 | |
| 20260510112736 | 45 | 290 | 1.0 | 2.0 | 0.00 | 0.00 | 0.00 | 67 | |
| 20260510112233 | 44 | 271 | 0.0 | 1.0 | 0.00 | 0.00 | 0.00 | 68 | |
| 20260510111728 | 44 | 256 | 0.0 | 0.0 | 0.00 | 0.00 | 0.00 | 69 | |
| 20260510111226 | 44 | 257 | 0.0 | 0.0 | 0.00 | 0.00 | 0.00 | 69 | |
| 20260510110725 | 44 | 259 | 0.0 | 0.0 | 0.00 | 0.00 | 0.00 | 70 | |
| 20260510110224 | 44 | 260 | 0.0 | 0.0 | 0.00 | 0.00 | 0.00 | 69 | |
| 20260510105723 | 43 | 271 | 0.0 | 2.0 | 0.00 | 0.00 | 0.00 | 71 | |
| 20260510105218 | 43 | 261 | 0.0 | 0.0 | 0.00 | 0.00 | 0.00 | 72 | |
| 20260510104715 | 43 | 260 | 0.0 | 0.0 | 0.00 | 0.00 | 0.00 | 72 | |
| 20260510104212 | 43 | 269 | 0.0 | 1.0 | 0.00 | 0.00 | 0.00 | 72 | |
| 20260510103708 | 43 | 262 | 0.0 | 1.0 | 0.00 | 0.00 | 0.00 | 71 | |
| 20260510103206 | 43 | 238 | 0.0 | 0.0 | 0.00 | 0.00 | 0.00 | 70 | |
| 20260510102700 | 44 | 237 | 0.0 | 0.0 | 0.00 | 0.00 | 0.00 | 69 | |
| 20260510102156 | 44 | 236 | 0.0 | 0.0 | 0.00 | 0.00 | 0.00 | 69 | |
| 20260510101654 | 44 | 252 | 0.0 | 1.0 | 0.00 | 0.00 | 0.00 | 70 | |
| 20260510101152 | 44 | 263 | 0.0 | 1.0 | 0.00 | 0.00 | 0.00 | 71 | |
| 20260510100652 | 44 | 269 | 1.0 | 1.0 | 0.00 | 0.00 | 0.00 | 72 | |
| 20260510100150 | 44 | 260 | 0.0 | 0.0 | 0.00 | 0.00 | 0.00 | 74 | |
| 20260510095646 | 44 | 264 | 0.0 | 1.0 | 0.00 | 0.00 | 0.00 | 76 | |
| 20260510095141 | 44 | 269 | 0.0 | 0.0 | 0.00 | 0.00 | 0.00 | 77 | |
| 20260510094640 | 44 | 261 | 0.0 | 1.0 | 0.00 | 0.00 | 0.00 | 78 | |
| 20260510094136 | 44 | 267 | 0.0 | 0.0 | 0.00 | 0.00 | 0.00 | 79 | |
| 20260510093632 | 44 | 259 | 0.0 | 1.0 | 0.00 | 0.00 | 0.00 | 79 | |
| 20260510093130 | 44 | 267 | 0.0 | 1.0 | 0.00 | 0.00 | 0.00 | 78 | |
| 20260510092626 | 44 | 267 | 0.0 | 1.0 | 0.00 | 0.00 | 0.00 | 78 | |
| 20260510092121 | 44 | 261 | 0.0 | 0.0 | 0.00 | 0.00 | 0.00 | 77 | |
| 20260510091617 | 44 | 252 | 0.0 | 0.0 | 0.00 | 0.00 | 0.00 | 76 | |
| 20260510091113 | 45 | 237 | 0.0 | 0.0 | 0.00 | 0.00 | 0.00 | 75 | |
| 20260510090611 | 45 | 237 | 0.0 | 0.0 | 0.00 | 0.00 | 0.00 | 74 | |
| 20260510090107 | 46 | 248 | 0.0 | 0.0 | 0.00 | 0.00 | 0.00 | 73 | |
| 20260510085602 | 46 | 246 | 0.0 | 0.0 | 0.00 | 0.00 | 0.00 | 71 | |
| 20260510085058 | 47 | 237 | 0.0 | 0.0 | 0.00 | 0.00 | 0.00 | 70 | |
| 20260510084554 | 48 | 230 | 0.0 | 0.0 | 0.00 | 0.00 | 0.00 | 69 | |
| 20260510084051 | 48 | 216 | 0.0 | 1.0 | 0.00 | 0.00 | 0.00 | 68 | |
| 20260510083548 | 48 | 157 | 1.0 | 2.0 | 0.00 | 0.00 | 0.00 | 68 | |
| 20260510083044 | 48 | 241 | 0.0 | 0.0 | 0.00 | 0.00 | 0.00 | 65 | |
| 20260510082541 | 49 | 248 | 0.0 | 0.0 | 0.00 | 0.00 | 0.00 | 64 | |
| 20260510082036 | 49 | 284 | 0.0 | 1.0 | 0.00 | 0.00 | 0.00 | 63 | |
| 20260510081531 | 49 | 245 | 0.0 | 0.0 | 0.00 | 0.00 | 0.00 | 61 | |
| 20260510081027 | 50 | 21 | 0.0 | 2.0 | 0.00 | 0.00 | 0.00 | 59 | |
| 20260510080526 | 50 | 241 | 0.0 | 3.0 | 0.00 | 0.00 | 0.00 | 57 | |
| 20260510080024 | 50 | 288 | 1.0 | 2.0 | 0.00 | 0.00 | 0.00 | 56 | |
| 20260510075521 | 51 | 248 | 1.0 | 2.0 | 0.00 | 0.00 | 0.00 | 55 | |
| 20260510075017 | 51 | 239 | 0.0 | 1.0 | 0.00 | 0.00 | 0.00 | 55 | |
| 20260510074516 | 51 | 286 | 2.0 | 3.0 | 0.00 | 0.00 | 0.00 | 55 | |
| 20260510074011 | 51 | 289 | 1.0 | 2.0 | 0.00 | 0.00 | 0.00 | 56 | |
| 20260510073507 | 51 | 44 | 1.0 | 2.0 | 0.00 | 0.00 | 0.00 | 56 | |
| 20260510073004 | 51 | 252 | 0.0 | 5.0 | 0.00 | 0.00 | 0.00 | 55 | |
| 20260510072500 | 52 | 263 | 0.0 | 1.0 | 0.00 | 0.00 | 0.00 | 55 | |
| 20260510071956 | 52 | 337 | 3.0 | 3.0 | 0.00 | 0.00 | 0.00 | 55 | |
| 20260510071452 | 52 | 138 | 0.0 | 2.0 | 0.00 | 0.00 | 0.00 | 56 | |
| 20260510070950 | 52 | 254 | 0.0 | 2.0 | 0.00 | 0.00 | 0.00 | 57 | |
| 20260510070447 | 52 | 290 | 1.0 | 2.0 | 0.00 | 0.00 | 0.00 | 57 | |
| 20260510065943 | 52 | 315 | 2.0 | 2.0 | 0.00 | 0.00 | 0.00 | 59 | |
| 20260510065440 | 52 | 3 | 1.0 | 2.0 | 0.00 | 0.00 | 0.00 | 59 | |
| 20260510064936 | 52 | 279 | 1.0 | 2.0 | 0.00 | 0.00 | 0.00 | 59 | |
| 20260510064434 | 52 | 303 | 2.0 | 2.0 | 0.00 | 0.00 | 0.00 | 59 | |
| 20260510063930 | 53 | 276 | 1.0 | 1.0 | 0.00 | 0.00 | 0.00 | 58 | |
| 20260510063426 | 53 | 268 | 1.0 | 3.0 | 0.00 | 0.00 | 0.00 | 57 | |
| 20260510062925 | 53 | 273 | 1.0 | 3.0 | 0.00 | 0.00 | 0.00 | 57 | |
| 20260510062419 | 53 | 305 | 1.0 | 2.0 | 0.00 | 0.00 | 0.00 | 58 | |
| 20260510061915 | 53 | 275 | 1.0 | 1.0 | 0.00 | 0.00 | 0.00 | 57 | |
| 20260510061412 | 53 | 308 | 1.0 | 1.0 | 0.00 | 0.00 | 0.00 | 58 | |
| 20260510060908 | 53 | 265 | 0.0 | 2.0 | 0.00 | 0.00 | 0.00 | 59 | |
| 20260510060405 | 53 | 218 | 0.0 | 1.0 | 0.00 | 0.00 | 0.00 | 60 | |
| 20260510055901 | 53 | 260 | 0.0 | 1.0 | 0.00 | 0.00 | 0.00 | 59 | |
| 20260510055356 | 53 | 246 | 0.0 | 0.0 | 0.00 | 0.00 | 0.00 | 59 | |
| 20260510054854 | 53 | 325 | 0.0 | 0.0 | 0.00 | 0.00 | 0.00 | 58 | |
| 20260510054350 | 53 | 282 | 0.0 | 2.0 | 0.00 | 0.00 | 0.00 | 58 | |
| 20260510053845 | 54 | 251 | 0.0 | 2.0 | 0.00 | 0.00 | 0.00 | 57 | |
| 20260510053341 | 54 | 262 | 1.0 | 1.0 | 0.00 | 0.00 | 0.00 | 57 | |
| 20260510052838 | 54 | 279 | 0.0 | 1.0 | 0.00 | 0.00 | 0.00 | 57 | |
| 20260510052333 | 54 | 236 | 0.0 | 0.0 | 0.00 | 0.00 | 0.00 | 57 | |
| 20260510051830 | 55 | 262 | 1.0 | 1.0 | 0.00 | 0.00 | 0.00 | 57 | |
| 20260510051327 | 55 | 95 | 0.0 | 1.0 | 0.00 | 0.00 | 0.00 | 57 | |
| 20260510050824 | 55 | 7 | 0.0 | 2.0 | 0.00 | 0.00 | 0.00 | 56 | |
| 20260510050320 | 56 | 359 | 1.0 | 2.0 | 0.00 | 0.00 | 0.00 | 55 | |
| 20260510045817 | 56 | 51 | 0.0 | 1.0 | 0.00 | 0.00 | 0.00 | 54 | |
| 20260510045314 | 56 | 54 | 0.0 | 0.0 | 0.00 | 0.00 | 0.00 | 53 | |
| 20260510044811 | 56 | 281 | 1.0 | 1.0 | 0.00 | 0.00 | 0.00 | 52 | |
| 20260510044308 | 56 | 266 | 0.0 | 1.0 | 0.00 | 0.00 | 0.00 | 52 | |
| 20260510043804 | 57 | 288 | 1.0 | 2.0 | 0.00 | 0.00 | 0.00 | 51 | |
| 20260510043300 | 57 | 285 | 0.0 | 3.0 | 0.00 | 0.00 | 0.00 | 51 | |
| 20260510042758 | 57 | 299 | 1.0 | 2.0 | 0.00 | 0.00 | 0.00 | 50 | |
| 20260510042253 | 57 | 278 | 0.0 | 3.0 | 0.00 | 0.00 | 0.00 | 50 | |
| 20260510041750 | 57 | 299 | 1.0 | 2.0 | 0.00 | 0.00 | 0.00 | 49 | |
| 20260510041247 | 58 | 277 | 1.0 | 3.0 | 0.00 | 0.00 | 0.00 | 48 | |
| 20260510040745 | 58 | 310 | 1.0 | 3.0 | 0.00 | 0.00 | 0.00 | 47 | |
| 20260510040236 | 58 | 322 | 2.0 | 5.0 | 0.00 | 0.00 | 0.00 | 47 | |
| 20260510035731 | 59 | 250 | 1.0 | 3.0 | 0.00 | 0.05 | 0.05 | 47 | |
| 20260510035227 | 59 | 257 | 2.0 | 3.0 | 0.00 | 0.05 | 0.05 | 46 | |
| 20260510034723 | 59 | 157 | 1.0 | 6.0 | 0.00 | 0.05 | 0.05 | 46 | |
| 20260510034222 | 60 | 334 | 1.0 | 5.0 | 0.00 | 0.05 | 0.05 | 46 | |
| 20260510033717 | 60 | 295 | 3.0 | 3.0 | 0.00 | 0.05 | 0.05 | 45 | |
| 20260510033215 | 60 | 260 | 3.0 | 10.0 | 0.00 | 0.05 | 0.05 | 44 | |
| 20260510032711 | 60 | 56 | 0.0 | 2.0 | 0.00 | 0.05 | 0.05 | 45 | |
| 20260510032207 | 60 | 292 | 3.0 | 5.0 | 0.00 | 0.05 | 0.05 | 44 | |
| 20260510031702 | 60 | 125 | 5.0 | 9.0 | 0.00 | 0.05 | 0.05 | 44 | |
| 20260510031159 | 61 | 293 | 2.0 | 3.0 | 0.00 | 0.05 | 0.05 | 44 | |
| 20260510030652 | 61 | 76 | 3.0 | 8.0 | 0.00 | 0.05 | 0.05 | 44 | |
| 20260510030151 | 62 | 297 | 3.0 | 8.0 | 0.00 | 0.05 | 0.05 | 43 | |
| 20260510025647 | 62 | 356 | 1.0 | 6.0 | 0.00 | 0.05 | 0.05 | 44 | |
| 20260510025145 | 62 | 339 | 3.0 | 7.0 | 0.00 | 0.05 | 0.05 | 45 | |
| 20260510024642 | 62 | 23 | 4.0 | 5.0 | 0.00 | 0.05 | 0.05 | 46 | |
| 20260510024138 | 62 | 179 | 0.0 | 6.0 | 0.00 | 0.05 | 0.05 | 48 | |
| 20260510023634 | 62 | 252 | 1.0 | 6.0 | 0.00 | 0.05 | 0.05 | 48 | |
| 20260510023132 | 62 | 308 | 4.0 | 8.0 | 0.00 | 0.05 | 0.05 | 47 | |
| 20260510022631 | 62 | 318 | 5.0 | 7.0 | 0.00 | 0.05 | 0.05 | 48 | |
| 20260510022126 | 62 | 326 | 1.0 | 2.0 | 0.00 | 0.05 | 0.05 | 48 | |
| 20260510021622 | 63 | 275 | 1.0 | 2.0 | 0.00 | 0.05 | 0.05 | 48 | |
| 20260510021120 | 63 | 273 | 0.0 | 2.0 | 0.00 | 0.05 | 0.05 | 48 | |
| 20260510020614 | 62 | 275 | 3.0 | 3.0 | 0.00 | 0.05 | 0.05 | 49 | |
| 20260510020109 | 62 | 273 | 0.0 | 1.0 | 0.00 | 0.05 | 0.05 | 50 | |
| 20260510015606 | 62 | 261 | 0.0 | 1.0 | 0.00 | 0.05 | 0.05 | 51 | |
| 20260510015103 | 61 | 271 | 0.0 | 1.0 | 0.00 | 0.05 | 0.05 | 53 | |
| 20260510014558 | 62 | 245 | 0.0 | 0.0 | 0.00 | 0.05 | 0.05 | 49 | |
| 20260510014055 | 62 | 250 | 0.0 | 0.0 | 0.00 | 0.05 | 0.05 | 50 | |
| 20260510013550 | 62 | 251 | 0.0 | 0.0 | 0.00 | 0.05 | 0.05 | 49 | |
| 20260510013046 | 63 | 249 | 0.0 | 0.0 | 0.00 | 0.05 | 0.05 | 47 | |
| 20260510012545 | 63 | 247 | 0.0 | 0.0 | 0.00 | 0.05 | 0.05 | 47 | |
| 20260510012042 | 64 | 249 | 0.0 | 0.0 | 0.00 | 0.05 | 0.05 | 46 | |
| 20260510011541 | 64 | 250 | 0.0 | 0.0 | 0.00 | 0.05 | 0.05 | 46 | |
| 20260510011037 | 64 | 263 | 0.0 | 1.0 | 0.00 | 0.05 | 0.05 | 43 | |
| 20260510010534 | 65 | 271 | 1.0 | 1.0 | 0.00 | 0.05 | 0.05 | 42 | |
| 20260510010031 | 65 | 256 | 0.0 | 2.0 | 0.00 | 0.05 | 0.05 | 41 | |
| 20260510005527 | 65 | 259 | 0.0 | 1.0 | 0.00 | 0.05 | 0.05 | 41 | |
| 20260510005025 | 66 | 260 | 1.0 | 2.0 | 0.00 | 0.05 | 0.05 | 40 | |
| 20260510004522 | 66 | 274 | 1.0 | 1.0 | 0.00 | 0.05 | 0.05 | 40 | |
| 20260510004020 | 66 | 300 | 1.0 | 1.0 | 0.00 | 0.05 | 0.05 | 40 | |
| 20260510003516 | 66 | 254 | 1.0 | 3.0 | 0.00 | 0.05 | 0.05 | 39 | |
| 20260510003012 | 67 | 249 | 0.0 | 2.0 | 0.00 | 0.05 | 0.05 | 39 | |
| 20260510002508 | 67 | 314 | 2.0 | 2.0 | 0.00 | 0.05 | 0.05 | 38 | |
| 20260510002005 | 67 | 281 | 1.0 | 2.0 | 0.00 | 0.05 | 0.05 | 38 | |
| 20260510001502 | 67 | 272 | 1.0 | 2.0 | 0.00 | 0.05 | 0.05 | 38 | |
| 20260510001000 | 68 | 260 | 1.0 | 2.0 | 0.00 | 0.05 | 0.05 | 37 | |
| 20260510000455 | 68 | 313 | 1.0 | 2.0 | 0.00 | 0.05 | 0.05 | 36 | |
| 20260509235952 | 68 | 266 | 1.0 | 2.0 | 0.00 | 0.05 | 0.05 | 37 | |
| 20260509235449 | 68 | 249 | 1.0 | 6.0 | 0.00 | 0.05 | 0.05 | 36 | |
| 20260509234945 | 68 | 236 | 3.0 | 7.0 | 0.00 | 0.05 | 0.05 | 35 | |
| 20260509234442 | 68 | 324 | 2.0 | 5.0 | 0.00 | 0.05 | 0.05 | 35 | |
| 20260509233940 | 69 | 273 | 4.0 | 9.0 | 0.00 | 0.05 | 0.05 | 35 | |
| 20260509233437 | 69 | 258 | 3.0 | 8.0 | 0.00 | 0.05 | 0.05 | 34 | |
| 20260509232933 | 69 | 300 | 3.0 | 8.0 | 0.00 | 0.05 | 0.05 | 34 | |
| 20260509232431 | 69 | 255 | 3.0 | 10.0 | 0.00 | 0.05 | 0.05 | 35 | |
| 20260509231926 | 69 | 256 | 4.0 | 8.0 | 0.00 | 0.05 | 0.05 | 35 | |
| 20260509231423 | 69 | 264 | 2.0 | 6.0 | 0.00 | 0.05 | 0.05 | 34 | |
| 20260509230922 | 69 | 294 | 4.0 | 7.0 | 0.00 | 0.05 | 0.05 | 34 |